Terminal Aerodrome Forecast
Issued by NWS Huntsville, AL

Home | Current Version | Previous Version | Text Only | Print | Product List | Glossary On
Versions: 1 2 3 4 5 6 7 8 9 10 11 12 13 14 15 16 17 18 19 20 21 22 23 24 25 26
000
FTUS44 KHUN 221123
TAFMSL
TAF
KMSL 221123Z 2212/2312 17012G18KT P6SM BKN090
     FM221300 18015G20KT P6SM VCSH BKN025 OVC050
     FM221400 18015G25KT 6SM SHRA VCTS BKN020CB OVC050
      TEMPO 2215/2219 2SM +TSRA BKN015CB
     FM221900 20015G25KT 6SM -SHRA BKN020
     FM222100 22011G20KT P6SM SCT035 BKN050
     FM230000 23011KT P6SM SKC=

USA.gov is the U.S. government's official web portal to all federal, state and local government web resources and services.